createdAt,value
2019-04-03T00:00:15.861Z,20
2019-04-03T00:01:09.143Z,19.9
2019-04-03T00:01:56.384Z,19.9
2019-04-03T00:02:45.083Z,19.9
2019-04-03T00:03:39.178Z,19.8
2019-04-03T00:04:25.423Z,19.8
2019-04-03T00:05:15.788Z,19.7
2019-04-03T00:06:09.247Z,19.7
2019-04-03T00:06:55.695Z,19.6
2019-04-03T00:07:46.880Z,19.6
2019-04-03T00:08:50.727Z,19.6
2019-04-03T00:09:25.552Z,19.5
2019-04-03T00:10:16.267Z,19.4
2019-04-03T00:11:11.277Z,19.4
2019-04-03T00:11:56.319Z,19.4
2019-04-03T00:12:50.928Z,19.3
2019-04-03T00:13:37.362Z,19.3
2019-04-03T00:14:27.104Z,19.3
2019-04-03T00:15:19.635Z,19.2
2019-04-03T00:16:07.231Z,19.2
2019-04-03T00:16:57.800Z,19.1
2019-04-03T00:17:50.460Z,19.1
2019-04-03T00:18:37.056Z,19.1
2019-04-03T00:19:27.100Z,19
2019-04-03T00:20:19.174Z,19.1
2019-04-03T00:21:07.647Z,19.8
2019-04-03T00:21:59.887Z,20.6
2019-04-03T00:22:55.279Z,21.3
2019-04-03T00:23:37.702Z,21.9
2019-04-03T00:24:31.268Z,22.2
2019-04-03T00:25:17.228Z,22.6
2019-04-03T00:26:07.689Z,22.8
2019-04-03T00:27:01.281Z,23.1
2019-04-03T00:27:47.714Z,23.3
2019-04-03T00:28:38.202Z,23.4
2019-04-03T00:29:31.074Z,23.6
2019-04-03T00:30:18.512Z,23.8
2019-04-03T00:31:09.125Z,23.4
2019-04-03T00:32:01.859Z,22.9
2019-04-03T00:32:48.449Z,22.4
2019-04-03T00:33:38.153Z,22.1
2019-04-03T00:34:31.306Z,21.9
2019-04-03T00:35:18.381Z,21.7
2019-04-03T00:36:09.184Z,21.6
2019-04-03T00:37:01.901Z,21.4
2019-04-03T00:37:48.803Z,21.3
2019-04-03T00:38:39.014Z,21.2
2019-04-03T00:40:19.251Z,21.1
2019-04-03T00:41:09.372Z,21
2019-04-03T00:42:01.601Z,20.9
2019-04-03T00:42:49.402Z,20.8
2019-04-03T00:43:39.611Z,20.8
2019-04-03T00:44:32.089Z,20.8
2019-04-03T00:45:19.490Z,20.7
2019-04-03T00:46:09.081Z,20.6
2019-04-03T00:47:02.976Z,20.6
2019-04-03T00:47:48.898Z,20.5
2019-04-03T00:48:40.140Z,20.4
2019-04-03T00:49:33.085Z,20.4
2019-04-03T00:50:19.724Z,20.3
2019-04-03T00:51:10.810Z,20.3
2019-04-03T00:52:02.133Z,20.3
2019-04-03T00:52:50.805Z,20.2
2019-04-03T00:53:39.545Z,20.1
2019-04-03T00:54:36.918Z,20.1
2019-04-03T00:55:20.831Z,20
2019-04-03T00:56:10.653Z,20
2019-04-03T00:57:03.386Z,19.9
2019-04-03T00:57:51.378Z,19.9
2019-04-03T00:58:40.467Z,19.8
2019-04-03T00:59:33.622Z,19.8
2019-04-03T01:00:19.578Z,19.8
2019-04-03T01:01:10.757Z,19.7
2019-04-03T01:02:03.162Z,19.6
2019-04-03T01:02:50.365Z,19.6
2019-04-03T01:03:40.662Z,19.6
2019-04-03T01:04:33.952Z,19.5
2019-04-03T01:05:21.572Z,19.4
2019-04-03T01:06:10.890Z,19.4
2019-04-03T01:07:03.962Z,19.4
2019-04-03T01:07:51.705Z,19.3
2019-04-03T01:08:40.895Z,19.3
2019-04-03T01:09:34.167Z,19.3
2019-04-03T01:10:20.919Z,19.3
2019-04-03T01:11:11.164Z,19.2
2019-04-03T01:12:04.154Z,19.1
2019-04-03T01:12:51.573Z,19.1
2019-04-03T01:13:41.871Z,19.1
2019-04-03T01:14:35.177Z,19
2019-04-03T01:15:21.867Z,19
2019-04-03T01:16:12.192Z,18.9
2019-04-03T01:17:05.815Z,19.2
2019-04-03T01:17:51.570Z,20.1
2019-04-03T01:18:44.099Z,20.8
2019-04-03T01:19:32.314Z,21.4
2019-04-03T01:20:21.226Z,21.9
2019-04-03T01:21:14.649Z,22.2
2019-04-03T01:22:01.271Z,22.5
2019-04-03T01:22:51.686Z,22.7
2019-04-03T01:23:45.223Z,22.9
2019-04-03T01:24:32.434Z,23.1
2019-04-03T01:25:21.570Z,23.3
2019-04-03T01:26:16.163Z,23.5
2019-04-03T01:27:02.810Z,23.6
2019-04-03T01:27:53.122Z,23.4
2019-04-03T01:28:46.197Z,22.9
2019-04-03T01:29:32.114Z,22.4
2019-04-03T01:30:23.729Z,22.1
2019-04-03T01:31:15.654Z,21.9
2019-04-03T01:32:02.535Z,21.7
2019-04-03T01:32:55.823Z,21.5
2019-04-03T01:33:43.298Z,21.3
2019-04-03T01:34:33.022Z,21.3
2019-04-03T01:36:13.235Z,21.1
2019-04-03T01:37:02.894Z,21
2019-04-03T01:37:55.786Z,20.9
2019-04-03T01:38:44.288Z,20.8
2019-04-03T01:39:32.417Z,20.8
2019-04-03T01:40:26.577Z,20.7
2019-04-03T01:41:13.772Z,20.6
2019-04-03T01:42:03.386Z,20.6
2019-04-03T01:42:56.979Z,20.5
2019-04-03T01:43:42.726Z,20.4
2019-04-03T01:44:35.149Z,20.4
2019-04-03T01:45:26.927Z,20.4
2019-04-03T01:46:14.083Z,20.3
2019-04-03T01:47:06.573Z,20.3
2019-04-03T01:47:52.937Z,20.2
2019-04-03T01:48:43.970Z,20.1
2019-04-03T01:49:37.204Z,20.1
2019-04-03T01:50:23.932Z,20.1
2019-04-03T01:51:13.087Z,20
2019-04-03T01:52:07.915Z,19.9
2019-04-03T01:52:53.754Z,19.9
2019-04-03T01:53:44.141Z,19.8
2019-04-03T01:54:37.932Z,19.8
2019-04-03T01:55:24.017Z,19.8
2019-04-03T01:56:14.815Z,19.7
2019-04-03T01:57:08.304Z,19.7
2019-04-03T01:57:54.352Z,19.6
2019-04-03T01:58:44.970Z,19.6
2019-04-03T01:59:38.160Z,19.5
2019-04-03T02:00:24.060Z,19.5
2019-04-03T02:01:17.227Z,19.4
2019-04-03T02:02:04.724Z,19.4
2019-04-03T02:02:55.199Z,19.3
2019-04-03T02:03:47.604Z,19.3
2019-04-03T02:04:35.092Z,19.3
2019-04-03T02:05:24.474Z,19.2
2019-04-03T02:06:18.433Z,19.2
2019-04-03T02:07:04.385Z,19.1
2019-04-03T02:07:55.316Z,19.1
2019-04-03T02:08:48.359Z,19.1
2019-04-03T02:09:34.527Z,19
2019-04-03T02:10:27.444Z,18.9
2019-04-03T02:11:14.818Z,18.9
2019-04-03T02:12:06.432Z,18.9
2019-04-03T02:12:58.991Z,19.1
2019-04-03T02:13:45.471Z,19.9
2019-04-03T02:14:35.617Z,20.6
2019-04-03T02:15:29.101Z,21.3
2019-04-03T02:16:15.947Z,21.8
2019-04-03T02:17:06.294Z,22.1
2019-04-03T02:17:59.074Z,22.4
2019-04-03T02:18:46.915Z,22.6
2019-04-03T02:19:36.531Z,22.8
2019-04-03T02:20:30.201Z,22.6
2019-04-03T02:21:16.397Z,22.1
2019-04-03T02:22:56.230Z,20.8
2019-04-03T02:23:46.805Z,20.8
2019-04-03T02:24:39.753Z,21.3
2019-04-03T02:25:26.329Z,21.8
2019-04-03T02:26:16.666Z,22.3
2019-04-03T02:27:09.129Z,22.6
2019-04-03T02:27:56.214Z,22.8
2019-04-03T02:28:45.663Z,23.1
2019-04-03T02:29:35.913Z,23.2
2019-04-03T02:30:27.181Z,23.4
2019-04-03T02:31:23.168Z,23.6
2019-04-03T02:32:07.245Z,23.2
2019-04-03T02:33:03.202Z,22.8
2019-04-03T02:33:47.278Z,22.3
2019-04-03T02:34:43.171Z,22
2019-04-03T02:35:27.336Z,21.8
2019-04-03T02:36:22.652Z,21.6
2019-04-03T02:37:07.676Z,21.4
2019-04-03T02:37:59.446Z,21.3
2019-04-03T02:39:37.312Z,21.1
2019-04-03T02:40:33.087Z,20.9
2019-04-03T02:41:17.180Z,20.9
2019-04-03T02:42:13.906Z,20.8
2019-04-03T02:42:58.273Z,20.8
2019-04-03T02:43:54.398Z,20.7
2019-04-03T02:44:38.615Z,20.6
2019-04-03T02:45:33.789Z,20.6
2019-04-03T02:46:19.088Z,20.5
2019-04-03T02:47:10.935Z,20.4
2019-04-03T02:47:59.745Z,20.4
2019-04-03T02:48:47.809Z,20.3
2019-04-03T02:49:42.633Z,20.3
2019-04-03T02:50:29.968Z,20.2
2019-04-03T02:51:23.210Z,20.1
2019-04-03T02:52:09.403Z,20.1
2019-04-03T02:53:05.475Z,20.1
2019-04-03T02:53:50.065Z,20
2019-04-03T02:54:44.886Z,19.9
2019-04-03T02:55:29.006Z,19.9
2019-04-03T02:56:23.311Z,19.9
2019-04-03T02:57:09.252Z,19.8
2019-04-03T02:58:16.257Z,19.8
2019-04-03T02:58:53.211Z,19.7
2019-04-03T02:59:39.459Z,19.6
2019-04-03T03:00:36.149Z,19.6
2019-04-03T03:01:20.717Z,19.6
2019-04-03T03:02:14.975Z,19.5
2019-04-03T03:02:59.316Z,19.4
2019-04-03T03:03:54.685Z,19.4
2019-04-03T03:07:20.553Z,19.2
2019-04-03T03:08:15.156Z,19.2
2019-04-03T03:09:00.655Z,19.1
2019-04-03T03:09:57.073Z,19.1
2019-04-03T03:10:40.432Z,19.1
2019-04-03T03:11:35.094Z,19
2019-04-03T03:12:20.099Z,18.9
2019-04-03T03:13:12.322Z,18.9
2019-04-03T03:14:01.223Z,18.9
2019-04-03T03:14:50.825Z,18.8
2019-04-03T03:15:47.530Z,18.8
2019-04-03T03:16:30.364Z,19.1
2019-04-03T03:17:25.688Z,19.8
2019-04-03T03:18:11.488Z,20.6
2019-04-03T03:19:51.487Z,21.7
2019-04-03T03:20:46.818Z,22
2019-04-03T03:21:30.700Z,22.3
2019-04-03T03:22:27.128Z,22.5
2019-04-03T03:23:09.998Z,22.8
2019-04-03T03:24:06.681Z,22.9
2019-04-03T03:24:51.814Z,23.1
2019-04-03T03:25:42.881Z,23.3
2019-04-03T03:26:31.275Z,23.4
2019-04-03T03:27:21.386Z,23.6
2019-04-03T03:28:16.509Z,23.4
2019-04-03T03:29:29.898Z,22.8
2019-04-03T03:29:52.232Z,22.2
2019-04-03T03:32:10.577Z,22.1
2019-04-03T03:33:43.123Z,21.3
2019-04-03T03:36:01.182Z,21.1
2019-04-03T03:36:39.306Z,20.9
2019-04-03T03:37:19.390Z,20.8
2019-04-03T03:37:55.308Z,20.8
2019-04-03T03:38:51.589Z,20.7
2019-04-03T03:39:36.286Z,20.6
2019-04-03T03:40:26.108Z,20.6
2019-04-03T03:41:16.049Z,20.5
2019-04-03T03:42:08.974Z,20.4
2019-04-03T03:42:57.091Z,20.4
2019-04-03T03:43:49.492Z,20.3
2019-04-03T03:44:38.180Z,20.3
2019-04-03T03:45:31.609Z,20.3
2019-04-03T03:46:17.077Z,20.3
2019-04-03T03:47:11.441Z,20.1
2019-04-03T03:47:56.866Z,19.4
2019-04-03T03:48:55.451Z,18.9
2019-04-03T03:49:37.380Z,18.8
2019-04-03T03:50:34.651Z,18.9
2019-04-03T03:51:16.939Z,19.1
2019-04-03T03:52:13.704Z,19.1
2019-04-03T03:52:57.241Z,19.2
2019-04-03T03:53:54.652Z,19.2
2019-04-03T03:54:36.859Z,19.2
2019-04-03T03:55:33.253Z,19.2
2019-04-03T03:56:17.609Z,19.2
2019-04-03T03:57:13.636Z,19.2
2019-04-03T03:57:56.867Z,19.1
2019-04-03T03:58:53.104Z,19.1
2019-04-03T03:59:37.289Z,19.1
2019-04-03T04:00:32.846Z,19.1
2019-04-03T04:01:17.475Z,19
2019-04-03T04:02:14.579Z,18.9
2019-04-03T04:02:58.107Z,18.9
2019-04-03T04:03:52.570Z,18.9
2019-04-03T04:04:39.032Z,18.8
2019-04-03T04:05:33.305Z,18.8
2019-04-03T04:06:18.079Z,18.8
2019-04-03T04:07:13.401Z,18.8
2019-04-03T04:08:54.182Z,18.8
2019-04-03T04:09:39.339Z,18.8
2019-04-03T04:10:40.125Z,18.9
2019-04-03T04:11:19.250Z,18.9
2019-04-03T04:12:14.133Z,18.8
2019-04-03T04:12:58.247Z,18.8
2019-04-03T04:13:54.940Z,18.8
2019-04-03T04:14:39.764Z,18.8
2019-04-03T04:17:23.295Z,18.6
2019-04-03T04:18:01.352Z,18.6
2019-04-03T04:18:49.378Z,18.6
2019-04-03T04:19:42.199Z,18.6
2019-04-03T04:20:29.332Z,18.6
2019-04-03T04:21:21.199Z,18.6
2019-04-03T04:22:10.414Z,18.6
2019-04-03T04:23:02.380Z,18.6
2019-04-03T04:23:49.408Z,18.6
2019-04-03T04:24:39.159Z,18.5
2019-04-03T04:25:33.718Z,18.4
2019-04-03T04:26:18.213Z,18.4
2019-04-03T04:27:12.102Z,18.4
2019-04-03T04:28:00.150Z,18.4
2019-04-03T04:28:50.094Z,18.3
2019-04-03T04:29:41.006Z,18.4
2019-04-03T04:30:29.072Z,18.4
2019-04-03T04:31:20.961Z,18.4
2019-04-03T04:32:10.078Z,18.4
2019-04-03T04:32:59.911Z,18.4
2019-04-03T04:33:52.941Z,18.4
2019-04-03T04:34:40.478Z,18.4
2019-04-03T04:35:31.720Z,18.4
2019-04-03T04:36:19.776Z,18.3
2019-04-03T04:37:12.044Z,18.3
2019-04-03T04:38:03.981Z,18.3
2019-04-03T04:38:48.803Z,18.2
2019-04-03T04:39:39.833Z,18.2
2019-04-03T04:40:33.143Z,18.8
2019-04-03T04:41:19.898Z,19.7
2019-04-03T04:42:14.419Z,20.3
2019-04-03T04:42:59.812Z,20.9
2019-04-03T04:43:51.342Z,21.4
2019-04-03T04:44:43.000Z,21.8
2019-04-03T04:45:33.919Z,22.3
2019-04-03T04:46:23.227Z,22.6
2019-04-03T04:47:10.580Z,22.7
2019-04-03T04:48:00.777Z,22.8
2019-04-03T04:48:52.938Z,22.9
2019-04-03T04:49:40.495Z,23
2019-04-03T04:50:33.925Z,23
2019-04-03T04:51:20.539Z,22.4
2019-04-03T04:52:11.105Z,22
2019-04-03T04:53:04.187Z,21.6
2019-04-03T04:53:50.200Z,21.3
2019-04-03T04:55:38.015Z,20.9
2019-04-03T04:56:20.535Z,20.8
2019-04-03T04:57:13.527Z,20.7
2019-04-03T04:58:00.031Z,20.6
2019-04-03T04:58:53.047Z,20.4
2019-04-03T04:59:47.910Z,20.4
2019-04-03T05:00:33.564Z,20.4
2019-04-03T05:01:24.384Z,20.3
2019-04-03T05:02:12.049Z,20.2
2019-04-03T05:03:04.827Z,20.1
2019-04-03T05:03:55.349Z,19.9
2019-04-03T05:04:40.619Z,19.9
2019-04-03T05:05:38.134Z,19.8
2019-04-03T05:06:22.872Z,19.7
2019-04-03T05:07:12.914Z,19.6
2019-04-03T05:08:05.119Z,19.6
2019-04-03T05:08:51.972Z,19.5
2019-04-03T05:09:45.086Z,19.4
2019-04-03T05:10:31.495Z,19.4
2019-04-03T05:11:20.997Z,19.4
2019-04-03T05:12:16.421Z,19.3
2019-04-03T05:13:02.102Z,19.3
2019-04-03T05:13:55.114Z,19.2
2019-04-03T05:14:42.340Z,19.2
2019-04-03T05:15:33.734Z,19.1
2019-04-03T05:16:29.551Z,19.1
2019-04-03T05:17:12.016Z,19
2019-04-03T05:18:05.812Z,19
2019-04-03T05:18:51.896Z,18.9
2019-04-03T05:19:43.238Z,18.9
2019-04-03T05:20:34.062Z,18.8
2019-04-03T05:21:26.589Z,18.8
2019-04-03T05:22:13.108Z,18.8
2019-04-03T05:23:04.883Z,18.8
2019-04-03T05:24:43.537Z,18.6
2019-04-03T05:25:36.683Z,18.6
2019-04-03T05:26:26.809Z,18.6
2019-04-03T05:27:16.826Z,18.5
2019-04-03T05:28:05.345Z,18.5
2019-04-03T05:29:08.561Z,18.4
2019-04-03T05:29:43.380Z,18.4
2019-04-03T05:30:33.240Z,18.4
2019-04-03T05:31:24.485Z,18.3
2019-04-03T05:32:18.267Z,18.3
2019-04-03T05:33:04.425Z,18.3
2019-04-03T05:33:52.875Z,18.2
2019-04-03T05:34:47.420Z,18.3
2019-04-03T05:35:34.415Z,19
2019-04-03T05:36:27.560Z,19.9
2019-04-03T05:37:22.858Z,20.6
2019-04-03T05:38:03.317Z,21.2
2019-04-03T05:38:58.770Z,21.6
2019-04-03T05:39:43.865Z,22.2
2019-04-03T05:40:35.072Z,22
2019-04-03T05:41:28.683Z,21.7
2019-04-03T05:42:14.574Z,21.4
2019-04-03T05:43:07.567Z,21.3
2019-04-03T05:43:54.137Z,21.1
2019-04-03T05:44:44.039Z,20.9
2019-04-03T05:45:37.269Z,20.8
2019-04-03T05:46:28.377Z,20.8
2019-04-03T05:47:17.064Z,20.6
2019-04-03T05:48:06.824Z,20.6
2019-04-03T05:48:57.646Z,20.4
2019-04-03T05:49:55.226Z,20.4
2019-04-03T05:50:40.307Z,20.3
2019-04-03T05:51:24.226Z,20.3
2019-04-03T05:52:14.345Z,20.2
2019-04-03T05:53:08.260Z,20.1
2019-04-03T05:53:57.859Z,20.1
2019-04-03T05:54:51.915Z,20
2019-04-03T05:55:35.424Z,19.9
2019-04-03T05:56:24.802Z,19.9
2019-04-03T05:57:17.891Z,19.8
2019-04-03T05:59:06.941Z,19.8
2019-04-03T05:59:18.093Z,19.6
2019-04-03T06:00:15.122Z,19.6
2019-04-03T06:01:18.024Z,19.6
2019-04-03T06:01:54.992Z,19.5
2019-04-03T06:02:38.457Z,19.4
2019-04-03T06:05:25.923Z,19.3
2019-04-03T06:06:09.707Z,19.3
2019-04-03T06:06:59.095Z,19.2
2019-04-03T06:07:53.256Z,19.1
2019-04-03T06:08:45.277Z,19.1
2019-04-03T06:09:33.076Z,19
2019-04-03T06:10:19.829Z,19
2019-04-03T06:11:20.614Z,18.9
2019-04-03T06:12:00.996Z,18.9
2019-04-03T06:12:54.775Z,18.9
2019-04-03T06:13:41.357Z,18.8
2019-04-03T06:14:32.723Z,18.8
2019-04-03T06:17:04.938Z,19
2019-04-03T06:17:58.471Z,19.8
2019-04-03T06:18:41.940Z,20.5
2019-04-03T06:19:30.630Z,21.1
2019-04-03T06:20:21.661Z,21.6
2019-04-03T06:21:11.463Z,22.3
2019-04-03T06:22:00.640Z,22.4
2019-04-03T06:22:55.776Z,22.6
2019-04-03T06:23:41.786Z,22.8
2019-04-03T06:24:34.747Z,22.9
2019-04-03T06:25:28.712Z,23.1
2019-04-03T06:26:12.710Z,23.1
2019-04-03T06:27:01.455Z,22.8
2019-04-03T06:27:53.274Z,22.3
2019-04-03T06:28:49.005Z,21.8
2019-04-03T06:29:31.867Z,21.4
2019-04-03T06:30:22.883Z,21.3
2019-04-03T06:31:14.732Z,21
2019-04-03T06:32:08.148Z,20.9
2019-04-03T06:32:56.005Z,20.7
2019-04-03T06:33:44.907Z,20.6
2019-04-03T06:34:32.581Z,20.5
2019-04-03T06:35:23.958Z,20.4
2019-04-03T06:36:12.918Z,20.3
2019-04-03T06:37:03.038Z,20.3
2019-04-03T06:37:56.072Z,20.1
2019-04-03T06:38:41.714Z,20.1
2019-04-03T06:39:41.499Z,20.1
2019-04-03T06:40:23.265Z,19.9
2019-04-03T06:41:16.676Z,19.9
2019-04-03T06:42:03.301Z,19.9
2019-04-03T06:42:54.188Z,19.8
2019-04-03T06:43:43.580Z,19.8
2019-04-03T06:44:33.130Z,19.8
2019-04-03T06:45:28.102Z,19.6
2019-04-03T06:46:14.131Z,19.6
2019-04-03T06:47:09.044Z,19.5
2019-04-03T06:47:53.362Z,19.5
2019-04-03T06:48:45.548Z,19.4
2019-04-03T06:49:33.563Z,19.4
2019-04-03T06:50:27.361Z,19.3
2019-04-03T06:51:16.452Z,19.3
2019-04-03T06:52:03.803Z,19.3
2019-04-03T06:52:56.386Z,19.2
2019-04-03T06:53:43.566Z,19.1
2019-04-03T06:54:37.354Z,19.1
2019-04-03T06:55:27.565Z,19.1
2019-04-03T06:56:16.791Z,19
2019-04-03T06:57:04.259Z,18.9
2019-04-03T06:57:54.195Z,18.9
2019-04-03T06:58:53.231Z,18.8
2019-04-03T06:59:33.791Z,18.8
2019-04-03T07:00:24.021Z,18.8
2019-04-03T07:01:13.254Z,18.8
2019-04-03T07:02:53.834Z,18.6
2019-04-03T07:05:20.386Z,18.5
2019-04-03T07:06:09.987Z,18.4
2019-04-03T07:07:03.722Z,18.4
2019-04-03T07:07:49.769Z,18.4
2019-04-03T07:08:48.634Z,18.4
2019-04-03T07:09:45.392Z,18.4
2019-04-03T07:10:37.023Z,19.1
2019-04-03T07:11:09.392Z,20.1
2019-04-03T07:12:02.419Z,20.6
2019-04-03T07:13:40.980Z,21.8
2019-04-03T07:14:34.466Z,22.1
2019-04-03T07:15:24.431Z,22.4
2019-04-03T07:16:11.213Z,22.6
2019-04-03T07:17:09.214Z,22.8
2019-04-03T07:17:50.554Z,22.9
2019-04-03T07:18:44.449Z,23.1
2019-04-03T07:19:31.532Z,23.2
2019-04-03T07:20:29.650Z,22.7
2019-04-03T07:21:11.081Z,22.1
2019-04-03T07:22:04.805Z,21.8
2019-04-03T07:22:51.996Z,21.4
2019-04-03T07:23:41.709Z,21.2
2019-04-03T07:24:33.987Z,21
2019-04-03T07:25:22.074Z,20.8
2019-04-03T07:26:14.589Z,20.7
2019-04-03T07:27:01.558Z,20.6
2019-04-03T07:27:51.852Z,20.5
2019-04-03T07:28:46.179Z,20.4
2019-04-03T07:29:35.449Z,20.4
2019-04-03T07:30:29.246Z,20.3
2019-04-03T07:31:12.349Z,20.2
2019-04-03T07:32:05.234Z,20.2
2019-04-03T07:32:52.392Z,20.1
2019-04-03T07:33:43.441Z,20
2019-04-03T07:34:36.176Z,20
2019-04-03T07:35:22.261Z,19.9
2019-04-03T07:36:16.751Z,19.9
2019-04-03T07:37:01.472Z,19.8
2019-04-03T07:37:56.905Z,19.8
2019-04-03T07:38:42.634Z,19.7
2019-04-03T07:39:32.062Z,19.6
2019-04-03T07:40:25.875Z,19.6
2019-04-03T07:41:13.065Z,19.6
2019-04-03T07:42:03.751Z,19.5
2019-04-03T07:42:55.334Z,19.4
2019-04-03T07:43:43.016Z,19.4
2019-04-03T07:44:37.360Z,19.3
2019-04-03T07:45:22.355Z,19.3
2019-04-03T07:46:13.185Z,19.2
2019-04-03T07:47:08.273Z,19.2
2019-04-03T07:47:52.280Z,19.1
2019-04-03T07:48:46.862Z,19.1
2019-04-03T07:49:32.043Z,19
2019-04-03T07:50:23.883Z,19
2019-04-03T07:51:16.115Z,18.9
2019-04-03T07:52:03.075Z,18.9
2019-04-03T07:52:57.569Z,18.9
2019-04-03T07:53:43.467Z,18.8
2019-04-03T07:54:36.197Z,18.8
2019-04-03T07:55:29.510Z,18.8
2019-04-03T07:57:09.545Z,18.6
2019-04-03T07:57:53.464Z,18.6
2019-04-03T07:58:44.465Z,18.6
2019-04-03T07:59:38.068Z,18.6
2019-04-03T08:00:24.900Z,18.5
2019-04-03T08:01:22.379Z,18.4
2019-04-03T08:02:04.316Z,18.4
2019-04-03T08:02:59.115Z,18.4
2019-04-03T08:03:45.180Z,18.5
2019-04-03T08:05:47.035Z,19.3
2019-04-03T08:06:07.792Z,21.3
2019-04-03T08:06:48.202Z,21.6
2019-04-03T08:07:38.757Z,21.9
2019-04-03T08:08:30.513Z,22.3
2019-04-03T08:09:20.400Z,22.6
2019-04-03T08:10:09.974Z,22.8
2019-04-03T08:11:04.086Z,23.1
2019-04-03T08:11:49.251Z,23.3
2019-04-03T08:12:45.014Z,23.4
2019-04-03T08:13:30.507Z,23.1
2019-04-03T08:14:23.531Z,22.5
2019-04-03T08:15:13.972Z,22
2019-04-03T08:16:00.761Z,21.7
2019-04-03T08:16:59.992Z,21.4
2019-04-03T08:17:40.587Z,21.2
2019-04-03T08:18:32.251Z,21
2019-04-03T08:19:24.501Z,20.9
2019-04-03T08:20:11.031Z,20.8
2019-04-03T08:21:08.757Z,20.6
2019-04-03T08:21:51.371Z,20.6
2019-04-03T08:22:44.803Z,20.5
2019-04-03T08:23:30.946Z,20.4
2019-04-03T08:24:20.997Z,20.3
2019-04-03T08:25:16.296Z,20.3
2019-04-03T08:26:03.998Z,20.2
2019-04-03T08:26:55.236Z,20.1
2019-04-03T08:27:41.313Z,20.1
2019-04-03T08:28:39.206Z,20
2019-04-03T08:29:22.051Z,19.9
2019-04-03T08:30:16.198Z,19.9
2019-04-03T08:31:01.398Z,19.9
2019-04-03T08:31:57.510Z,19.8
2019-04-03T08:32:43.038Z,19.8
2019-04-03T08:33:39.505Z,19.7
2019-04-03T08:34:27.424Z,19.6
2019-04-03T08:35:35.973Z,19.6
2019-04-03T08:36:03.379Z,19.5
2019-04-03T08:36:52.422Z,19.5
2019-04-03T08:37:47.766Z,19.4
2019-04-03T08:38:33.033Z,19.4
2019-04-03T08:39:27.256Z,19.4
2019-04-03T08:40:12.311Z,19.3
2019-04-03T08:41:07.570Z,19.3
2019-04-03T08:41:53.722Z,19.2
2019-04-03T08:42:43.115Z,19.2
2019-04-03T08:43:36.676Z,19.1
2019-04-03T08:44:21.434Z,19.1
2019-04-03T08:45:16.879Z,19
2019-04-03T08:46:02.307Z,18.9
2019-04-03T08:46:54.198Z,18.9
2019-04-03T08:47:50.190Z,18.9
2019-04-03T08:48:32.330Z,18.8
2019-04-03T08:49:23.849Z,18.8
2019-04-03T08:50:13.206Z,18.8
2019-04-03T08:51:09.894Z,18.8
2019-04-03T08:52:48.172Z,18.6
2019-04-03T08:53:33.675Z,18.6
2019-04-03T08:54:23.894Z,18.6
2019-04-03T08:55:17.662Z,18.5
2019-04-03T08:56:05.687Z,18.5
2019-04-03T08:56:57.137Z,18.4
2019-04-03T08:57:47.859Z,18.6
2019-04-03T08:58:37.099Z,19.6
2019-04-03T08:59:24.269Z,20.4
2019-04-03T09:00:14.608Z,21.2
2019-04-03T09:01:11.211Z,21.8
2019-04-03T09:01:58.342Z,22.4
2019-04-03T09:02:48.405Z,22.7
2019-04-03T09:03:33.020Z,22.9
2019-04-03T09:04:27.553Z,23.2
2019-04-03T09:05:23.100Z,23.4
2019-04-03T09:06:05.916Z,23.6
2019-04-03T09:06:57.521Z,23.1
2019-04-03T09:07:45.155Z,22.6
2019-04-03T09:08:36.296Z,22.1
2019-04-03T09:09:22.937Z,21.8
2019-04-03T09:10:14.748Z,21.5
2019-04-03T09:11:08.256Z,21.3
2019-04-03T09:11:53.963Z,21.1
2019-04-03T09:12:47.724Z,21
2019-04-03T09:13:34.635Z,20.9
2019-04-03T09:14:30.921Z,20.8
2019-04-03T09:15:14.698Z,20.7
2019-04-03T09:16:12.001Z,20.6
2019-04-03T09:16:55.178Z,20.5
2019-04-03T09:17:45.378Z,20.4
2019-04-03T09:18:42.166Z,20.4
2019-04-03T09:19:26.038Z,20.3
2019-04-03T09:20:18.858Z,20.3
2019-04-03T09:21:05.505Z,20.2
2019-04-03T09:22:00.192Z,20.2
2019-04-03T09:22:45.107Z,20.1
2019-04-03T09:23:34.588Z,20.1
2019-04-03T09:24:30.146Z,20
2019-04-03T09:25:18.735Z,19.9
2019-04-03T09:26:08.578Z,19.9
2019-04-03T09:26:54.467Z,19.8
2019-04-03T09:27:48.840Z,19.8
2019-04-03T09:28:35.060Z,19.7
2019-04-03T09:29:23.696Z,19.7
2019-04-03T09:30:19.464Z,19.6
2019-04-03T09:31:05.725Z,19.6
2019-04-03T09:32:03.204Z,19.5
2019-04-03T09:32:46.947Z,19.4
2019-04-03T09:33:38.982Z,19.4
2019-04-03T09:34:37.028Z,19.4
2019-04-03T09:35:16.670Z,19.3
2019-04-03T09:36:13.603Z,19.3
2019-04-03T09:36:56.688Z,19.3
2019-04-03T09:37:51.522Z,19.2
2019-04-03T09:38:44.942Z,19.1
2019-04-03T09:39:26.287Z,19.1
2019-04-03T09:40:21.427Z,19.1
2019-04-03T09:41:06.729Z,19
2019-04-03T09:41:58.290Z,18.9
2019-04-03T09:42:45.120Z,18.9
2019-04-03T09:43:40.928Z,18.9
2019-04-03T09:44:30.031Z,18.8
2019-04-03T09:45:16.085Z,18.8
2019-04-03T09:46:10.034Z,18.8
2019-04-03T09:48:40.221Z,18.6
2019-04-03T09:49:28.291Z,18.6
2019-04-03T09:50:24.758Z,18.6
2019-04-03T09:51:10.874Z,18.5
2019-04-03T09:53:06.743Z,19.7
2019-04-03T09:53:37.684Z,20.9
2019-04-03T09:54:32.313Z,21.4
2019-04-03T09:55:17.491Z,22.1
2019-04-03T09:56:12.575Z,22.4
2019-04-03T09:57:14.438Z,22.8
2019-04-03T09:57:48.438Z,23.2
2019-04-03T09:58:41.838Z,23.4
2019-04-03T09:59:28.787Z,23.6
2019-04-03T10:00:21.086Z,23.7
2019-04-03T10:01:07.190Z,23.1
2019-04-03T10:01:58.488Z,22.6
2019-04-03T10:02:52.468Z,22.2
2019-04-03T10:03:41.385Z,21.8
2019-04-03T10:06:38.378Z,21.2
2019-04-03T10:07:13.346Z,21
2019-04-03T10:08:01.563Z,20.9
2019-04-03T10:08:50.778Z,20.9
2019-04-03T10:09:49.472Z,20.8
2019-04-03T10:10:33.227Z,20.7
2019-04-03T10:11:43.416Z,20.6
2019-04-03T10:12:11.320Z,20.6
2019-04-03T10:13:03.593Z,20.5
2019-04-03T10:14:06.395Z,20.4
2019-04-03T10:14:41.779Z,20.4
2019-04-03T10:15:35.075Z,20.3
2019-04-03T10:16:24.629Z,20.3
2019-04-03T10:17:16.963Z,20.2
2019-04-03T10:18:00.895Z,20.1
2019-04-03T10:18:53.051Z,20.1
2019-04-03T10:19:41.341Z,20.1
2019-04-03T10:20:31.345Z,20
2019-04-03T10:21:40.262Z,19.9
2019-04-03T10:22:11.960Z,19.9
2019-04-03T10:23:04.812Z,19.9
2019-04-03T10:23:50.369Z,19.8
2019-04-03T10:24:42.331Z,19.8
2019-04-03T10:25:32.109Z,19.7
2019-04-03T10:26:21.734Z,19.6
2019-04-03T10:27:15.545Z,19.6
2019-04-03T10:28:02.246Z,19.6
2019-04-03T10:28:57.479Z,19.5
2019-04-03T10:29:59.796Z,19.4
2019-04-03T10:30:32.915Z,19.4
2019-04-03T10:31:25.966Z,19.4
2019-04-03T10:32:12.671Z,19.3
2019-04-03T10:33:07.094Z,19.3
2019-04-03T10:33:52.410Z,19.3
2019-04-03T10:34:45.770Z,19.2
2019-04-03T10:35:51.472Z,19.1
2019-04-03T10:36:36.984Z,19.1
2019-04-03T10:37:17.077Z,19.1
2019-04-03T10:38:03.671Z,19
2019-04-03T10:39:08.083Z,19
2019-04-03T10:39:54.974Z,18.9
2019-04-03T10:40:34.714Z,18.9
2019-04-03T10:41:23.076Z,18.9
2019-04-03T10:42:13.999Z,18.8
2019-04-03T10:43:12.862Z,18.8
2019-04-03T10:43:53.801Z,18.8
2019-04-03T10:46:27.461Z,18.6
2019-04-03T10:47:13.753Z,18.8
2019-04-03T10:48:06.356Z,19.7
2019-04-03T10:48:53.283Z,20.8
2019-04-03T10:49:44.245Z,21.6
2019-04-03T10:50:38.230Z,22.2
2019-04-03T10:51:24.563Z,22.7
2019-04-03T10:52:17.683Z,23
2019-04-03T10:53:03.476Z,23.3
2019-04-03T10:53:59.123Z,23.6
2019-04-03T10:54:46.115Z,23.8
2019-04-03T10:55:37.949Z,23.7
2019-04-03T10:56:24.050Z,23.1
2019-04-03T10:57:14.568Z,22.6
2019-04-03T10:58:13.778Z,22.2
2019-04-03T10:59:20.123Z,21.8
2019-04-03T10:59:44.965Z,21.6
2019-04-03T11:00:37.735Z,21.4
2019-04-03T11:01:23.868Z,21.3
2019-04-03T11:02:14.131Z,21.2
2019-04-03T11:03:03.543Z,21.1
2019-04-03T11:03:54.101Z,21
2019-04-03T11:04:42.528Z,20.9
2019-04-03T11:05:35.219Z,20.8
2019-04-03T11:06:25.094Z,20.8
2019-04-03T11:07:13.351Z,20.7
2019-04-03T11:08:19.031Z,20.6
2019-04-03T11:08:54.812Z,20.6
2019-04-03T11:09:44.518Z,20.5
2019-04-03T11:10:35.274Z,20.4
2019-04-03T11:11:24.892Z,20.4
2019-04-03T11:12:32.661Z,20.3
2019-04-03T11:13:08.975Z,20.3
2019-04-03T11:13:54.837Z,20.3
2019-04-03T11:14:48.702Z,20.2
2019-04-03T11:15:35.784Z,20.1
2019-04-03T11:16:25.327Z,20.1
2019-04-03T11:17:32.912Z,20
2019-04-03T11:18:06.439Z,19.9
2019-04-03T11:19:30.081Z,19.9
2019-04-03T11:19:51.077Z,19.8
2019-04-03T11:20:42.957Z,19.8
2019-04-03T11:21:43.178Z,19.8
2019-04-03T11:24:46.464Z,19.7
2019-04-03T11:24:59.744Z,19.5
2019-04-03T11:25:57.487Z,19.5
2019-04-03T11:26:40.856Z,19.4
2019-04-03T11:27:56.204Z,19.4
2019-04-03T11:28:21.551Z,19.3
2019-04-03T11:29:14.972Z,19.3
2019-04-03T11:30:25.508Z,19.3
2019-04-03T11:31:00.532Z,19.2
2019-04-03T11:31:52.233Z,19.2
2019-04-03T11:32:32.950Z,19.1
2019-04-03T11:33:23.405Z,19.1
2019-04-03T11:34:10.424Z,19.1
2019-04-03T11:35:03.332Z,19
2019-04-03T11:35:54.618Z,19
2019-04-03T11:36:39.927Z,18.9
2019-04-03T11:37:35.089Z,18.9
2019-04-03T11:38:39.221Z,18.9
2019-04-03T11:39:26.322Z,18.8
2019-04-03T11:40:31.164Z,18.8